createdAt,value
2019-04-06T00:00:52.021Z,99.90
2019-04-06T00:03:21.394Z,99.90
2019-04-06T00:05:50.715Z,99.90
2019-04-06T00:08:20.300Z,99.90
2019-04-06T00:10:49.848Z,99.90
2019-04-06T00:13:19.170Z,99.90
2019-04-06T00:15:48.846Z,99.90
2019-04-06T00:18:18.424Z,99.90
2019-04-06T00:20:47.785Z,99.90
2019-04-06T00:23:17.093Z,99.90
2019-04-06T00:25:46.382Z,99.90
2019-04-06T00:28:15.783Z,99.90
2019-04-06T00:31:13.598Z,99.90
2019-04-06T00:33:43.372Z,99.90
2019-04-06T00:36:12.640Z,99.90
2019-04-06T00:38:42.050Z,99.90
2019-04-06T00:41:11.350Z,99.90
2019-04-06T00:43:40.729Z,99.90
2019-04-06T00:46:10.743Z,99.90
2019-04-06T00:48:40.131Z,99.90
2019-04-06T00:51:09.509Z,99.90
2019-04-06T00:53:39.166Z,99.90
2019-04-06T00:56:08.519Z,99.90
2019-04-06T00:58:37.859Z,99.90
2019-04-06T01:01:07.227Z,99.90
2019-04-06T01:03:36.763Z,99.90
2019-04-06T01:06:06.074Z,99.90
2019-04-06T01:08:35.403Z,99.90
2019-04-06T01:11:05.397Z,99.90
2019-04-06T01:13:34.769Z,99.90
2019-04-06T01:16:04.085Z,99.90
2019-04-06T01:18:33.453Z,99.90
2019-04-06T01:21:02.821Z,99.90
2019-04-06T01:23:32.255Z,99.90
2019-04-06T01:26:07.003Z,99.90
2019-04-06T01:28:32.776Z,99.90
2019-04-06T01:31:02.316Z,99.90
2019-04-06T01:33:31.714Z,99.90
2019-04-06T01:36:01.254Z,99.90
2019-04-06T01:38:30.627Z,99.90
2019-04-06T01:40:59.984Z,99.90
2019-04-06T01:43:29.310Z,99.90
2019-04-06T01:45:58.893Z,99.90
2019-04-06T01:48:28.301Z,99.90
2019-04-06T01:50:57.574Z,99.90
2019-04-06T01:53:26.982Z,99.90
2019-04-06T01:55:56.384Z,99.90
2019-04-06T01:58:25.786Z,99.90
2019-04-06T02:01:12.598Z,99.90
2019-04-06T02:03:41.988Z,99.90
2019-04-06T02:06:11.316Z,99.90
2019-04-06T02:08:40.848Z,99.90
2019-04-06T02:11:10.328Z,99.90
2019-04-06T02:13:39.726Z,99.90
2019-04-06T02:16:09.425Z,99.90
2019-04-06T02:18:39.097Z,99.90
2019-04-06T02:21:08.511Z,99.90
2019-04-06T02:23:37.905Z,99.90
2019-04-06T02:26:07.186Z,99.90
2019-04-06T02:28:36.783Z,99.90
2019-04-06T02:31:09.873Z,99.90
2019-04-06T02:33:58.793Z,99.90
2019-04-06T02:36:45.579Z,99.90
2019-04-06T02:39:38.667Z,99.90
2019-04-06T02:42:20.423Z,99.90
2019-04-06T02:44:49.757Z,99.90
2019-04-06T02:47:19.052Z,99.90
2019-04-06T02:49:48.443Z,99.90
2019-04-06T02:52:17.979Z,99.90
2019-04-06T02:54:47.407Z,99.90
2019-04-06T02:57:17.044Z,99.90
2019-04-06T02:59:46.691Z,99.90
2019-04-06T03:02:15.993Z,99.90
2019-04-06T03:04:45.371Z,99.90
2019-04-06T03:07:14.686Z,99.90
2019-04-06T03:09:44.013Z,99.90
2019-04-06T03:12:13.357Z,99.90
2019-04-06T03:14:44.538Z,99.90
2019-04-06T03:17:14.023Z,99.90
2019-04-06T03:19:43.393Z,99.90
2019-04-06T03:22:12.760Z,99.90
2019-04-06T03:24:42.153Z,99.90
2019-04-06T03:27:11.457Z,99.90
2019-04-06T03:29:40.972Z,99.90
2019-04-06T03:32:10.423Z,99.90
2019-04-06T03:34:39.820Z,99.90
2019-04-06T03:37:09.142Z,99.90
2019-04-06T03:39:38.470Z,99.90
2019-04-06T03:42:10.436Z,99.90
2019-04-06T03:44:38.742Z,99.90
2019-04-06T03:47:08.080Z,99.90
2019-04-06T03:49:37.382Z,99.90
2019-04-06T03:52:06.737Z,99.90
2019-04-06T03:54:36.406Z,99.90
2019-04-06T03:57:14.626Z,99.90
2019-04-06T03:59:36.777Z,99.90
2019-04-06T04:02:06.220Z,99.90
2019-04-06T04:04:35.856Z,99.90
2019-04-06T04:07:05.237Z,99.90
2019-04-06T04:09:34.557Z,99.90
2019-04-06T04:12:03.893Z,99.90
2019-04-06T04:14:33.500Z,99.90
2019-04-06T04:17:03.242Z,99.90
2019-04-06T04:19:32.526Z,99.90
2019-04-06T04:22:01.847Z,99.90
2019-04-06T04:24:31.223Z,99.90
2019-04-06T04:27:00.594Z,99.90
2019-04-06T04:29:30.262Z,99.90
2019-04-06T04:31:59.788Z,99.90
2019-04-06T04:34:29.068Z,99.90
2019-04-06T04:36:58.359Z,99.90
2019-04-06T04:39:27.753Z,99.90
2019-04-06T04:41:57.428Z,99.90
2019-04-06T04:44:26.816Z,99.90
2019-04-06T04:46:56.316Z,99.90
2019-04-06T04:49:25.683Z,99.90
2019-04-06T04:51:55.142Z,99.90
2019-04-06T04:54:24.722Z,99.90
2019-04-06T04:56:54.026Z,99.90
2019-04-06T04:59:23.399Z,99.90
2019-04-06T05:01:53.063Z,99.90
2019-04-06T05:04:22.442Z,99.90
2019-04-06T05:06:51.765Z,99.90
2019-04-06T05:09:21.142Z,99.90
2019-04-06T05:11:50.490Z,99.90
2019-04-06T05:14:55.459Z,99.90
2019-04-06T05:17:24.994Z,99.90
2019-04-06T05:19:54.281Z,99.90
2019-04-06T05:22:24.177Z,99.90
2019-04-06T05:24:53.475Z,99.90
2019-04-06T05:27:22.981Z,99.90
2019-04-06T05:29:52.267Z,99.90
2019-04-06T05:32:21.670Z,99.90
2019-04-06T05:34:51.275Z,99.90
2019-04-06T05:37:20.614Z,99.90
2019-04-06T05:39:50.209Z,99.90
2019-04-06T05:42:19.576Z,99.90
2019-04-06T05:44:48.858Z,99.90
2019-04-06T05:47:18.534Z,99.90
2019-04-06T05:49:47.876Z,99.90
2019-04-06T05:52:17.190Z,99.90
2019-04-06T05:54:46.834Z,99.90
2019-04-06T05:57:16.163Z,99.60
2019-04-06T05:59:45.523Z,99.00
2019-04-06T06:02:15.245Z,98.70
2019-04-06T06:04:44.815Z,98.70
2019-04-06T06:07:14.486Z,98.10
2019-04-06T06:09:43.884Z,98.10
2019-04-06T06:12:14.177Z,98.00
2019-04-06T06:14:43.537Z,98.00
2019-04-06T06:17:14.370Z,98.00
2019-04-06T06:19:44.108Z,98.40
2019-04-06T06:22:13.518Z,98.00
2019-04-06T06:24:42.810Z,97.90
2019-04-06T06:27:12.193Z,98.50
2019-04-06T06:29:41.804Z,98.80
2019-04-06T06:32:11.094Z,99.00
2019-04-06T06:34:40.683Z,98.30
2019-04-06T06:37:10.085Z,98.10
2019-04-06T06:39:39.463Z,98.30
2019-04-06T06:42:08.770Z,99.00
2019-04-06T06:44:39.019Z,98.10
2019-04-06T06:47:08.406Z,98.10
2019-04-06T06:49:38.060Z,98.20
2019-04-06T06:52:07.370Z,97.20
2019-04-06T06:54:36.737Z,97.10
2019-04-06T06:57:06.042Z,95.90
2019-04-06T06:59:35.767Z,95.20
2019-04-06T07:02:05.094Z,95.20
2019-04-06T07:04:34.472Z,95.20
2019-04-06T07:07:03.958Z,94.80
2019-04-06T07:09:33.543Z,94.50
2019-04-06T07:12:03.287Z,94.70
2019-04-06T07:14:33.263Z,94.20
2019-04-06T07:17:03.196Z,93.90
2019-04-06T07:19:32.918Z,93.20
2019-04-06T07:22:02.380Z,92.70
2019-04-06T07:24:31.757Z,92.30
2019-04-06T07:27:01.154Z,92.60
2019-04-06T07:29:30.462Z,92.30
2019-04-06T07:31:59.825Z,92.30
2019-04-06T07:34:29.230Z,91.90
2019-04-06T07:36:58.858Z,91.90
2019-04-06T07:39:28.242Z,91.40
2019-04-06T07:41:57.842Z,91.40
2019-04-06T07:44:27.461Z,91.10
2019-04-06T07:46:56.965Z,90.20
2019-04-06T07:49:26.288Z,88.70
2019-04-06T07:51:55.570Z,88.70
2019-04-06T07:54:25.249Z,88.10
2019-04-06T07:56:54.755Z,86.90
2019-04-06T07:59:24.129Z,87.50
2019-04-06T08:01:53.516Z,87.30
2019-04-06T08:04:22.854Z,86.20
2019-04-06T08:06:52.198Z,86.10
2019-04-06T08:09:21.736Z,84.20
2019-04-06T08:11:51.096Z,84.00
2019-04-06T08:14:20.699Z,82.60
2019-04-06T08:16:50.006Z,84.00
2019-04-06T08:19:19.688Z,82.30
2019-04-06T08:21:49.121Z,83.20
2019-04-06T08:24:18.766Z,84.00
2019-04-06T08:26:48.145Z,83.50
2019-04-06T08:29:17.694Z,84.10
2019-04-06T08:31:47.359Z,83.10
2019-04-06T08:34:16.819Z,84.90
2019-04-06T08:36:46.118Z,84.20
2019-04-06T08:39:15.434Z,83.60
2019-04-06T08:41:44.791Z,84.40
2019-04-06T08:44:14.486Z,81.70
2019-04-06T08:46:43.842Z,80.70
2019-04-06T08:49:13.167Z,79.40
2019-04-06T08:51:43.020Z,81.00
2019-04-06T08:54:12.502Z,79.80
2019-04-06T08:56:41.803Z,78.00
2019-04-06T08:59:13.152Z,79.10
2019-04-06T09:01:42.236Z,78.30
2019-04-06T09:04:11.622Z,78.40
2019-04-06T09:06:41.049Z,79.10
2019-04-06T09:09:10.404Z,77.60
2019-04-06T09:11:39.953Z,76.80
2019-04-06T09:14:09.271Z,76.60
2019-04-06T09:16:38.635Z,74.00
2019-04-06T09:19:08.052Z,72.80
2019-04-06T09:21:37.658Z,72.50
2019-04-06T09:24:07.246Z,71.80
2019-04-06T09:26:36.887Z,71.90
2019-04-06T09:29:06.317Z,73.40
2019-04-06T09:31:35.772Z,72.80
2019-04-06T09:34:05.524Z,72.50
2019-04-06T09:36:35.130Z,73.40
2019-04-06T09:39:06.174Z,71.90
2019-04-06T09:41:36.043Z,70.80
2019-04-06T09:44:07.095Z,71.10
2019-04-06T09:46:55.432Z,71.60
2019-04-06T09:49:43.787Z,72.10
2019-04-06T09:52:22.887Z,72.30
2019-04-06T09:55:11.294Z,71.90
2019-04-06T09:57:51.528Z,71.70
2019-04-06T10:00:34.821Z,70.50
2019-04-06T10:03:26.407Z,69.50
2019-04-06T10:06:05.166Z,69.90
2019-04-06T10:08:52.560Z,70.20
2019-04-06T10:11:41.415Z,69.50
2019-04-06T10:14:28.387Z,69.40
2019-04-06T10:17:19.470Z,69.00
2019-04-06T10:20:06.485Z,69.20
2019-04-06T10:23:03.786Z,69.00
2019-04-06T10:25:52.163Z,69.60
2019-04-06T10:28:32.578Z,69.50
2019-04-06T10:31:12.650Z,70.80
2019-04-06T10:34:06.975Z,69.70
2019-04-06T10:36:54.239Z,69.10
2019-04-06T10:39:32.062Z,69.20
2019-04-06T10:42:18.778Z,70.60
2019-04-06T10:45:10.156Z,69.30
2019-04-06T10:48:01.582Z,69.40
2019-04-06T10:50:45.782Z,68.60
2019-04-06T10:53:49.197Z,68.60
2019-04-06T10:56:36.473Z,68.80
2019-04-06T10:59:18.799Z,68.90
2019-04-06T11:02:07.294Z,69.80
2019-04-06T11:04:44.401Z,69.60
2019-04-06T11:07:35.571Z,69.20
2019-04-06T11:10:36.040Z,69.10
2019-04-06T11:13:27.702Z,69.10
2019-04-06T11:16:14.953Z,68.60
2019-04-06T11:19:03.551Z,66.50
2019-04-06T11:21:39.839Z,66.20
2019-04-06T11:24:26.638Z,67.10
2019-04-06T11:27:19.610Z,68.20
2019-04-06T11:30:20.122Z,66.20
2019-04-06T11:33:09.320Z,66.20
2019-04-06T11:35:57.810Z,66.70
2019-04-06T11:38:51.943Z,65.70
2019-04-06T11:41:46.331Z,65.10
2019-04-06T11:44:41.568Z,65.40
2019-04-06T11:47:28.373Z,65.10
2019-04-06T11:50:22.540Z,63.90
2019-04-06T11:53:05.085Z,64.10
2019-04-06T11:55:53.829Z,62.20
2019-04-06T11:58:45.805Z,62.30
2019-04-06T12:01:34.834Z,62.70
2019-04-06T12:04:17.194Z,62.90
2019-04-06T12:07:14.765Z,63.80
2019-04-06T12:10:02.655Z,64.50
2019-04-06T12:12:49.773Z,65.00
2019-04-06T12:15:48.081Z,64.70
2019-04-06T12:18:33.816Z,64.50
2019-04-06T12:21:10.993Z,63.10
2019-04-06T12:23:58.057Z,62.00
2019-04-06T12:26:45.638Z,61.80
2019-04-06T12:29:48.939Z,62.10
2019-04-06T12:32:31.758Z,61.90
2019-04-06T12:35:32.090Z,62.10
2019-04-06T12:38:28.119Z,62.10
2019-04-06T12:41:16.478Z,62.00
2019-04-06T12:44:06.632Z,61.50
2019-04-06T12:46:50.781Z,62.20
2019-04-06T12:49:38.929Z,62.00
2019-04-06T12:52:21.183Z,62.40
2019-04-06T12:55:04.164Z,62.70
2019-04-06T12:57:58.163Z,62.00
2019-04-06T13:00:52.453Z,62.30
2019-04-06T13:03:48.765Z,61.70
2019-04-06T13:06:37.851Z,60.80
2019-04-06T13:09:26.269Z,60.90
2019-04-06T13:12:29.632Z,60.10
2019-04-06T13:15:17.969Z,60.20
2019-04-06T13:18:03.775Z,60.00
2019-04-06T13:20:52.403Z,59.40
2019-04-06T13:23:42.680Z,58.10
2019-04-06T13:26:32.039Z,58.70
2019-04-06T13:29:36.078Z,57.70
2019-04-06T13:32:17.135Z,56.90
2019-04-06T13:35:05.047Z,57.80
2019-04-06T13:38:00.886Z,57.40
2019-04-06T13:41:07.624Z,56.70
2019-04-06T13:43:43.315Z,57.10
2019-04-06T13:46:42.489Z,57.10
2019-04-06T13:49:43.294Z,57.00
2019-04-06T13:52:23.936Z,57.50
2019-04-06T13:55:11.346Z,57.50
2019-04-06T13:57:49.329Z,58.00
2019-04-06T14:00:27.929Z,58.20
2019-04-06T14:03:06.938Z,57.70
2019-04-06T14:05:42.902Z,56.30
2019-04-06T14:08:21.886Z,56.50
2019-04-06T14:11:19.790Z,56.60
2019-04-06T14:14:14.333Z,55.90
2019-04-06T14:17:09.267Z,55.60
2019-04-06T14:19:55.814Z,55.00
2019-04-06T14:22:42.930Z,55.30
2019-04-06T14:25:26.348Z,55.00
2019-04-06T14:28:03.311Z,55.20
2019-04-06T14:30:53.267Z,55.00
2019-04-06T14:33:40.165Z,55.40
2019-04-06T14:36:18.413Z,55.90
2019-04-06T14:39:12.148Z,55.40
2019-04-06T14:42:06.411Z,55.10
2019-04-06T14:44:47.407Z,55.00
2019-04-06T14:47:39.427Z,56.00
2019-04-06T14:50:20.066Z,55.80
2019-04-06T14:53:07.387Z,55.40
2019-04-06T14:55:58.943Z,56.00
2019-04-06T14:58:53.553Z,55.00
2019-04-06T15:01:54.778Z,55.90
2019-04-06T15:04:32.552Z,54.90
2019-04-06T15:07:22.609Z,55.10
2019-04-06T15:10:20.632Z,55.10
2019-04-06T15:13:16.707Z,55.30
2019-04-06T15:16:02.542Z,55.20
2019-04-06T15:19:09.386Z,54.30
2019-04-06T15:21:46.432Z,53.60
2019-04-06T15:24:35.067Z,53.50
2019-04-06T15:27:12.708Z,54.00
2019-04-06T15:30:07.461Z,54.20
2019-04-06T15:32:45.212Z,53.80
2019-04-06T15:35:39.792Z,53.80
2019-04-06T15:38:18.300Z,53.40
2019-04-06T15:41:12.531Z,53.30
2019-04-06T15:43:58.296Z,53.70
2019-04-06T15:46:38.664Z,54.50
2019-04-06T15:49:29.859Z,55.10
2019-04-06T15:52:21.031Z,54.90
2019-04-06T15:55:08.809Z,55.00
2019-04-06T15:57:52.070Z,55.40
2019-04-06T16:00:40.441Z,55.10
2019-04-06T16:03:26.908Z,55.70
2019-04-06T16:06:07.659Z,55.70
2019-04-06T16:09:12.063Z,55.70
2019-04-06T16:11:58.608Z,55.60
2019-04-06T16:14:47.294Z,55.80
2019-04-06T16:17:35.238Z,56.10
2019-04-06T16:20:23.905Z,56.90
2019-04-06T16:23:15.112Z,57.30
2019-04-06T16:25:59.407Z,57.00
2019-04-06T16:29:00.248Z,58.50
2019-04-06T16:31:48.948Z,58.30
2019-04-06T16:34:30.308Z,57.60
2019-04-06T16:37:20.863Z,57.30
2019-04-06T16:40:15.277Z,57.70
2019-04-06T16:42:53.033Z,57.70
2019-04-06T16:45:44.437Z,57.80
2019-04-06T16:48:35.764Z,57.90
2019-04-06T16:51:36.606Z,58.10
2019-04-06T16:54:42.921Z,58.10
2019-04-06T16:57:39.810Z,58.40
2019-04-06T17:00:35.399Z,58.90
2019-04-06T17:03:24.640Z,58.50
2019-04-06T17:06:28.102Z,59.30
2019-04-06T17:09:20.026Z,59.00
2019-04-06T17:12:07.316Z,59.20
2019-04-06T17:15:04.103Z,59.40
2019-04-06T17:17:49.259Z,59.20
2019-04-06T17:20:45.207Z,59.80
2019-04-06T17:23:37.534Z,60.60
2019-04-06T17:26:26.396Z,61.20
2019-04-06T17:29:26.587Z,61.20
2019-04-06T17:32:09.874Z,62.00
2019-04-06T17:35:01.915Z,61.90
2019-04-06T17:37:46.499Z,62.10
2019-04-06T17:40:25.631Z,63.30
2019-04-06T17:43:26.471Z,63.80
2019-04-06T17:46:02.333Z,64.50
2019-04-06T17:48:44.616Z,63.50
2019-04-06T17:51:45.634Z,64.20
2019-04-06T17:54:46.129Z,64.00
2019-04-06T17:57:36.609Z,64.40
2019-04-06T18:00:38.375Z,65.50
2019-04-06T18:03:20.400Z,67.00
2019-04-06T18:06:20.912Z,69.90
2019-04-06T18:09:10.475Z,69.10
2019-04-06T18:12:05.009Z,69.00
2019-04-06T18:14:34.876Z,69.10
2019-04-06T18:17:05.266Z,70.00
2019-04-06T18:19:34.944Z,71.60
2019-04-06T18:22:04.405Z,72.50
2019-04-06T18:24:34.014Z,71.30
2019-04-06T18:27:03.907Z,70.70
2019-04-06T18:29:33.430Z,70.60
2019-04-06T18:32:20.913Z,71.50
2019-04-06T18:34:51.473Z,71.00
2019-04-06T18:37:42.609Z,71.30
2019-04-06T18:40:17.280Z,72.10
2019-04-06T18:42:47.090Z,72.40
2019-04-06T18:45:16.801Z,72.80
2019-04-06T18:47:46.266Z,73.30
2019-04-06T18:50:15.823Z,74.10
2019-04-06T18:52:45.591Z,74.80
2019-04-06T18:55:15.089Z,75.40
2019-04-06T18:57:45.082Z,75.60
2019-04-06T19:00:15.354Z,76.10
2019-04-06T19:02:46.175Z,77.30
2019-04-06T19:05:17.332Z,78.10
2019-04-06T19:07:47.290Z,79.30
2019-04-06T19:10:16.777Z,79.20
2019-04-06T19:12:46.239Z,79.60
2019-04-06T19:15:16.111Z,79.70
2019-04-06T19:17:45.503Z,79.80
2019-04-06T19:20:15.880Z,80.30
2019-04-06T19:22:45.453Z,79.90
2019-04-06T19:25:15.376Z,80.30
2019-04-06T19:27:44.745Z,80.50
2019-04-06T19:30:14.744Z,81.00
2019-04-06T19:32:44.118Z,81.50
2019-04-06T19:35:13.723Z,81.60
2019-04-06T19:37:43.106Z,82.40
2019-04-06T19:40:12.854Z,82.00
2019-04-06T19:42:42.321Z,81.90
2019-04-06T19:45:11.727Z,82.20
2019-04-06T19:47:41.459Z,83.80
2019-04-06T19:50:11.718Z,84.00
2019-04-06T19:52:41.585Z,84.70
2019-04-06T19:55:11.044Z,84.80
2019-04-06T19:57:40.533Z,83.70
2019-04-06T20:00:11.403Z,84.30
2019-04-06T20:02:41.894Z,85.50
2019-04-06T20:05:11.781Z,85.50
2019-04-06T20:07:41.279Z,84.00
2019-04-06T20:10:11.544Z,85.20
2019-04-06T20:12:41.284Z,86.20
2019-04-06T20:15:10.971Z,87.20
2019-04-06T20:17:40.734Z,88.10
2019-04-06T20:20:10.819Z,88.20
2019-04-06T20:22:40.254Z,88.60
2019-04-06T20:25:11.065Z,88.10
2019-04-06T20:27:40.943Z,87.40
2019-04-06T20:30:11.286Z,85.50
2019-04-06T20:32:40.664Z,84.70
2019-04-06T20:35:10.892Z,86.60
2019-04-06T20:37:40.243Z,87.80
2019-04-06T20:40:11.715Z,88.70
2019-04-06T20:42:41.567Z,89.80
2019-04-06T20:45:11.404Z,90.10
2019-04-06T20:47:40.719Z,90.30
2019-04-06T20:50:11.194Z,91.00
2019-04-06T20:52:41.594Z,91.30
2019-04-06T20:55:11.457Z,91.30
2019-04-06T20:57:41.100Z,91.50
2019-04-06T21:00:10.879Z,92.00
2019-04-06T21:02:40.645Z,92.60
2019-04-06T21:05:10.469Z,92.90
2019-04-06T21:07:40.427Z,93.40
2019-04-06T21:10:09.983Z,93.40
2019-04-06T21:12:39.577Z,93.50
2019-04-06T21:15:18.997Z,93.90
2019-04-06T21:17:41.461Z,94.20
2019-04-06T21:20:11.089Z,94.30
2019-04-06T21:22:40.856Z,94.50
2019-04-06T21:25:10.349Z,94.70
2019-04-06T21:27:42.504Z,95.00
2019-04-06T21:30:10.994Z,95.20
2019-04-06T21:32:40.348Z,95.30
2019-04-06T21:35:10.249Z,95.20
2019-04-06T21:37:40.034Z,95.40
2019-04-06T21:40:10.177Z,95.70
2019-04-06T21:42:39.711Z,95.90
2019-04-06T21:45:11.041Z,96.00
2019-04-06T21:47:40.442Z,96.20
2019-04-06T21:50:10.171Z,95.80
2019-04-06T21:52:39.563Z,95.80
2019-04-06T21:55:12.198Z,95.70
2019-04-06T21:57:42.196Z,96.00
2019-04-06T22:00:13.926Z,95.90
2019-04-06T22:02:43.748Z,95.80
2019-04-06T22:05:13.742Z,95.50
2019-04-06T22:07:49.841Z,95.00
2019-04-06T22:10:15.618Z,94.90
2019-04-06T22:12:45.258Z,95.00
2019-04-06T22:15:16.056Z,94.80
2019-04-06T22:17:46.627Z,94.70
2019-04-06T22:20:16.399Z,94.50
2019-04-06T22:22:45.994Z,94.40
2019-04-06T22:25:15.393Z,94.50
2019-04-06T22:27:44.957Z,94.60
2019-04-06T22:30:14.915Z,94.70
2019-04-06T22:32:44.764Z,94.90
2019-04-06T22:35:14.818Z,95.10
2019-04-06T22:37:44.244Z,95.30
2019-04-06T22:40:14.231Z,95.40
2019-04-06T22:42:45.085Z,95.90
2019-04-06T22:45:16.267Z,96.20
2019-04-06T22:47:46.280Z,96.50
2019-04-06T22:50:15.774Z,96.70
2019-04-06T22:52:45.242Z,97.00
2019-04-06T22:55:14.624Z,97.50
2019-04-06T22:57:44.420Z,98.00
2019-04-06T23:00:24.670Z,98.10
2019-04-06T23:03:18.474Z,98.40
2019-04-06T23:05:51.735Z,98.70
2019-04-06T23:08:21.581Z,99.00
2019-04-06T23:10:51.334Z,99.20
2019-04-06T23:13:21.403Z,99.40
2019-04-06T23:15:50.949Z,99.40
2019-04-06T23:18:20.889Z,99.40
2019-04-06T23:20:51.177Z,99.40
2019-04-06T23:23:20.901Z,99.60
2019-04-06T23:25:50.348Z,99.80
2019-04-06T23:28:20.206Z,99.90
2019-04-06T23:30:50.176Z,99.90
2019-04-06T23:33:20.057Z,99.90
2019-04-06T23:35:49.702Z,99.90
2019-04-06T23:38:19.074Z,99.90
2019-04-06T23:40:48.744Z,99.90
2019-04-06T23:43:18.684Z,99.90
2019-04-06T23:45:48.349Z,99.90
2019-04-06T23:48:17.778Z,99.90
2019-04-06T23:50:47.239Z,99.90
2019-04-06T23:53:16.972Z,99.90
2019-04-06T23:55:47.060Z,99.90
2019-04-06T23:58:17.011Z,99.90
